CYSN

St Catharines / Niagara District Airport

St Catharines, , Canada
METAR CYSN 160200Z 05007KT 10SM OVC210 03/01 A3021 RMK CI8 LAST STFD OBS/NXT 161200Z SLP234
Observed Flight Rules
Dec-16 @ 02:00 UTC (4 hours ago) Visual Flight Rules
Wind Visibility Clouds
50° at 7 knots 10 miles
  • Overcast at 21,000' AGL
Temperatures Readings
Current 3°C / 37°F
Dewpoint 1°C / 34°F
Humidity 87%
Altimeter 30.21" Hg
Pressure 1023.4 hPa
Elevation 98
METAR CYSN 160200Z 05007KT 10SM OVC210 03/01 A3021 RMK CI8 LAST STFD OBS/NXT 161200Z SLP234
Observed Flight Rules
Dec-16 @ 02:00 UTC
(4 hours ago)
VFR
Wind Visibility
50° at 7 knots 10 miles
Clouds
  • Overcast at 21,000' AGL
Temperature Dewpoint
3°C / 37°F 1°C / 34°F
Humidity Altimeter Pressure
87% 30.21" Hg 1023.4 hPa